createdAt,value
2022-09-06T00:01:20.025Z,85.11
2022-09-06T00:03:47.798Z,84.99
2022-09-06T00:06:18.759Z,85.15
2022-09-06T00:08:48.168Z,85.18
2022-09-06T00:11:17.792Z,85.33
2022-09-06T00:13:47.087Z,85.36
2022-09-06T00:16:27.236Z,85.34
2022-09-06T00:18:57.380Z,85.37
2022-09-06T00:21:28.475Z,85.58
2022-09-06T00:23:56.203Z,85.55
2022-09-06T00:26:24.641Z,85.72
2022-09-06T00:28:52.409Z,85.80
2022-09-06T00:31:24.242Z,85.83
2022-09-06T00:33:52.721Z,85.98
2022-09-06T00:36:23.287Z,86.06
2022-09-06T00:38:51.048Z,86.07
2022-09-06T00:41:18.814Z,86.16
2022-09-06T00:43:46.671Z,86.22
2022-09-06T00:46:21.297Z,86.31
2022-09-06T00:48:56.338Z,86.30
2022-09-06T00:51:27.644Z,86.62
2022-09-06T00:53:56.335Z,86.85
2022-09-06T00:56:25.087Z,86.78
2022-09-06T00:58:52.631Z,86.90
2022-09-06T01:01:20.382Z,86.79
2022-09-06T01:03:48.276Z,87.02
2022-09-06T01:06:25.435Z,87.32
2022-09-06T01:09:38.492Z,87.51
2022-09-06T01:12:37.548Z,87.44
2022-09-06T01:15:26.652Z,87.48
2022-09-06T01:18:28.403Z,87.30
2022-09-06T01:21:20.869Z,87.17
2022-09-06T01:24:32.705Z,87.17
2022-09-06T01:27:34.036Z,87.10
2022-09-06T01:30:12.926Z,87.06
2022-09-06T01:32:55.253Z,86.90
2022-09-06T01:35:40.960Z,86.98
2022-09-06T01:38:09.279Z,86.99
2022-09-06T01:40:37.147Z,87.09
2022-09-06T01:43:11.173Z,87.01
2022-09-06T01:46:15.763Z,86.95
2022-09-06T01:49:12.143Z,86.66
2022-09-06T01:51:48.454Z,86.64
2022-09-06T01:54:47.018Z,86.49
2022-09-06T01:57:55.195Z,86.52
2022-09-06T02:00:23.768Z,86.58
2022-09-06T02:03:36.142Z,86.66
2022-09-06T02:06:20.315Z,86.90
2022-09-06T02:08:57.711Z,87.05
2022-09-06T02:11:30.514Z,87.25
2022-09-06T02:14:08.630Z,87.31
2022-09-06T02:16:40.519Z,87.32
2022-09-06T02:19:44.730Z,87.13
2022-09-06T02:22:18.779Z,87.11
2022-09-06T02:24:52.510Z,87.17
2022-09-06T02:27:20.313Z,87.13
2022-09-06T02:29:48.193Z,87.12
2022-09-06T02:32:21.886Z,87.17
2022-09-06T02:34:53.306Z,86.99
2022-09-06T02:37:24.163Z,87.05
2022-09-06T02:39:55.319Z,87.03
2022-09-06T02:42:25.043Z,87.14
2022-09-06T02:44:52.692Z,87.09
2022-09-06T02:47:20.183Z,87.23
2022-09-06T02:49:47.691Z,87.33
2022-09-06T02:52:15.634Z,87.26
2022-09-06T02:54:43.266Z,87.24
2022-09-06T02:57:10.927Z,87.29
2022-09-06T02:59:38.468Z,87.44
2022-09-06T03:02:06.119Z,87.46
2022-09-06T03:04:33.705Z,87.49
2022-09-06T03:07:01.241Z,87.47
2022-09-06T03:09:29.280Z,87.31
2022-09-06T03:11:56.926Z,87.40
2022-09-06T03:14:24.475Z,87.54
2022-09-06T03:16:52.135Z,87.50
2022-09-06T03:19:20.191Z,87.53
2022-09-06T03:21:47.730Z,87.44
2022-09-06T03:24:15.226Z,87.46
2022-09-06T03:26:44.267Z,87.44
2022-09-06T03:29:11.862Z,87.33
2022-09-06T03:31:39.418Z,87.31
2022-09-06T03:34:10.973Z,87.45
2022-09-06T03:36:38.893Z,87.48
2022-09-06T03:39:07.146Z,87.48
2022-09-06T03:41:34.582Z,87.55
2022-09-06T03:44:02.512Z,87.37
2022-09-06T03:46:30.830Z,87.16
2022-09-06T03:48:59.517Z,87.06
2022-09-06T03:51:27.102Z,87.11
2022-09-06T03:53:55.619Z,87.07
2022-09-06T03:56:23.534Z,87.09
2022-09-06T03:58:51.033Z,87.20
2022-09-06T04:01:18.855Z,87.18
2022-09-06T04:03:46.449Z,87.18
2022-09-06T04:06:14.011Z,87.18
2022-09-06T04:08:41.545Z,87.26
2022-09-06T04:11:09.580Z,87.17
2022-09-06T04:13:37.576Z,87.22
2022-09-06T04:16:06.123Z,87.22
2022-09-06T04:18:33.690Z,87.24
2022-09-06T04:21:01.257Z,87.12
2022-09-06T04:23:29.993Z,87.13
2022-09-06T04:25:59.344Z,87.12
2022-09-06T04:28:27.462Z,87.04
2022-09-06T04:31:04.225Z,86.99
2022-09-06T04:33:35.614Z,86.83
2022-09-06T04:36:07.548Z,86.78
2022-09-06T04:38:39.513Z,87.19
2022-09-06T04:41:08.893Z,87.47
2022-09-06T04:43:36.706Z,87.39
2022-09-06T04:46:24.090Z,86.94
2022-09-06T04:48:53.530Z,86.67
2022-09-06T04:51:22.278Z,86.53
2022-09-06T04:53:50.419Z,86.45
2022-09-06T04:56:21.937Z,86.24
2022-09-06T04:58:52.193Z,86.11
2022-09-06T05:01:20.645Z,85.71
2022-09-06T05:03:48.348Z,85.74
2022-09-06T05:06:24.440Z,85.27
2022-09-06T05:08:52.726Z,85.09
2022-09-06T05:11:20.214Z,84.65
2022-09-06T05:13:48.004Z,84.52
2022-09-06T05:16:15.742Z,84.18
2022-09-06T05:18:44.260Z,83.73
2022-09-06T05:21:11.763Z,83.30
2022-09-06T05:23:39.434Z,82.75
2022-09-06T05:26:07.046Z,82.19
2022-09-06T05:28:34.693Z,81.45
2022-09-06T05:31:12.426Z,80.86
2022-09-06T05:33:40.321Z,80.67
2022-09-06T05:36:08.326Z,80.27
2022-09-06T05:38:35.861Z,80.05
2022-09-06T05:41:03.445Z,79.87
2022-09-06T05:43:31.059Z,79.08
2022-09-06T05:45:59.655Z,78.47
2022-09-06T05:48:27.377Z,77.15
2022-09-06T05:51:12.585Z,76.28
2022-09-06T05:53:45.159Z,74.96
2022-09-06T05:56:15.071Z,74.65
2022-09-06T05:58:43.077Z,73.39
2022-09-06T06:01:19.765Z,73.64
2022-09-06T06:03:54.081Z,73.03
2022-09-06T06:06:24.106Z,70.65
2022-09-06T06:08:51.818Z,72.21
2022-09-06T06:11:20.461Z,71.18
2022-09-06T06:13:48.419Z,71.06
2022-09-06T06:16:19.088Z,69.56
2022-09-06T06:18:51.755Z,69.29
2022-09-06T06:21:26.820Z,68.82
2022-09-06T06:24:03.447Z,67.43
2022-09-06T06:26:34.833Z,65.26
2022-09-06T06:29:02.766Z,64.08
2022-09-06T06:31:33.007Z,64.33
2022-09-06T06:34:03.780Z,62.88
2022-09-06T06:36:34.271Z,61.75
2022-09-06T06:39:08.459Z,62.55
2022-09-06T06:41:36.178Z,62.89
2022-09-06T06:44:06.075Z,60.97
2022-09-06T06:46:37.103Z,60.85
2022-09-06T06:49:05.312Z,61.54
2022-09-06T06:51:37.193Z,62.21
2022-09-06T06:54:05.978Z,61.92
2022-09-06T06:56:37.884Z,59.32
2022-09-06T06:59:07.807Z,60.93
2022-09-06T07:01:37.065Z,59.47
2022-09-06T07:04:06.753Z,54.81
2022-09-06T07:12:31.748Z,53.76
2022-09-06T07:14:59.343Z,52.90
2022-09-06T07:17:26.688Z,51.84
2022-09-06T07:22:42.535Z,50.75
2022-09-06T07:25:14.493Z,50.17
2022-09-06T07:30:18.085Z,50.31
2022-09-06T07:32:45.619Z,49.44
2022-09-06T07:35:13.946Z,47.92
2022-09-06T07:37:41.583Z,48.37
2022-09-06T07:40:10.282Z,49.92
2022-09-06T07:42:38.089Z,48.32
2022-09-06T07:45:06.398Z,51.50
2022-09-06T07:53:15.578Z,48.62
2022-09-06T07:55:46.973Z,47.29
2022-09-06T07:58:14.447Z,48.57
2022-09-06T08:00:42.095Z,46.35
2022-09-06T08:03:10.235Z,46.94
2022-09-06T08:11:14.464Z,46.24
2022-09-06T08:13:42.479Z,47.06
2022-09-06T08:16:12.469Z,44.75
2022-09-06T08:18:40.283Z,43.02
2022-09-06T08:21:12.412Z,43.03
2022-09-06T08:23:45.519Z,44.32
2022-09-06T08:26:13.182Z,44.23
2022-09-06T08:28:40.714Z,45.06
2022-09-06T08:31:17.385Z,44.09
2022-09-06T08:33:45.136Z,44.29
2022-09-06T08:36:14.449Z,44.40
2022-09-06T08:38:42.223Z,44.70
2022-09-06T08:42:05.905Z,42.51
2022-09-06T08:45:00.250Z,42.93
2022-09-06T08:47:28.174Z,43.63
2022-09-06T08:50:06.747Z,41.96
2022-09-06T08:53:17.221Z,42.31
2022-09-06T08:56:03.146Z,41.50
2022-09-06T08:58:42.649Z,42.62
2022-09-06T09:01:19.705Z,42.89
2022-09-06T09:03:47.355Z,41.05
2022-09-06T09:06:14.918Z,41.18
2022-09-06T09:09:05.921Z,39.52
2022-09-06T09:11:36.109Z,40.86
2022-09-06T09:14:18.758Z,40.75
2022-09-06T09:16:52.651Z,40.71
2022-09-06T09:19:20.275Z,40.12
2022-09-06T09:21:48.321Z,40.28
2022-09-06T09:24:16.256Z,39.25
2022-09-06T09:27:11.147Z,40.16
2022-09-06T09:32:47.580Z,37.57
2022-09-06T09:35:42.208Z,37.35
2022-09-06T09:38:19.315Z,38.26
2022-09-06T09:41:03.335Z,39.21
2022-09-06T09:43:39.803Z,39.45
2022-09-06T09:46:22.593Z,37.38
2022-09-06T09:49:13.174Z,37.67
2022-09-06T09:51:47.929Z,38.46
2022-09-06T09:54:32.303Z,38.38
2022-09-06T09:56:59.965Z,36.08
2022-09-06T09:59:34.743Z,37.19
2022-09-06T10:02:18.816Z,36.30
2022-09-06T10:04:51.653Z,35.97
2022-09-06T10:07:24.494Z,38.46
2022-09-06T10:10:12.864Z,35.78
2022-09-06T10:12:42.891Z,36.18
2022-09-06T10:15:32.905Z,36.79
2022-09-06T10:18:00.581Z,37.46
2022-09-06T10:20:46.504Z,36.21
2022-09-06T10:26:56.737Z,36.23
2022-09-06T10:29:55.349Z,35.90
2022-09-06T10:32:40.647Z,32.53
2022-09-06T10:35:25.800Z,34.61
2022-09-06T10:38:14.320Z,35.06
2022-09-06T10:41:20.679Z,35.35
2022-09-06T10:44:17.091Z,36.05
2022-09-06T10:46:46.422Z,36.85
2022-09-06T10:49:19.235Z,36.91
2022-09-06T10:51:54.489Z,36.21
2022-09-06T10:54:24.235Z,35.45
2022-09-06T10:57:02.208Z,34.80
2022-09-06T10:59:52.162Z,34.91
2022-09-06T11:02:45.000Z,37.14
2022-09-06T11:05:38.306Z,36.53
2022-09-06T11:11:23.146Z,35.72
2022-09-06T11:13:50.879Z,36.07
2022-09-06T11:16:39.936Z,36.83
2022-09-06T11:19:26.726Z,38.27
2022-09-06T11:22:26.251Z,36.22
2022-09-06T11:25:27.581Z,36.25
2022-09-06T11:27:59.388Z,35.98
2022-09-06T11:30:29.858Z,35.61
2022-09-06T11:33:28.378Z,33.85
2022-09-06T11:36:33.078Z,34.23
2022-09-06T11:39:04.599Z,35.46
2022-09-06T11:41:37.914Z,36.64
2022-09-06T11:44:07.125Z,35.28
2022-09-06T11:46:34.572Z,34.28
2022-09-06T11:49:34.379Z,35.51
2022-09-06T11:52:02.302Z,34.82
2022-09-06T11:54:46.739Z,32.80
2022-09-06T11:57:21.264Z,36.64
2022-09-06T12:00:04.350Z,35.52
2022-09-06T12:02:41.594Z,33.48
2022-09-06T12:05:14.293Z,34.40
2022-09-06T12:08:21.519Z,33.95
2022-09-06T12:11:01.966Z,35.84
2022-09-06T12:13:54.466Z,36.00
2022-09-06T12:16:24.104Z,34.38
2022-09-06T12:18:51.677Z,32.93
2022-09-06T12:21:47.523Z,33.59
2022-09-06T12:24:38.799Z,32.89
2022-09-06T12:27:26.944Z,34.49
2022-09-06T12:29:59.851Z,34.53
2022-09-06T12:32:40.007Z,36.08
2022-09-06T12:38:25.773Z,39.81
2022-09-06T12:40:58.450Z,37.92
2022-09-06T12:43:27.145Z,40.19
2022-09-06T12:45:54.675Z,41.22
2022-09-06T12:48:32.200Z,40.08
2022-09-06T12:51:16.263Z,39.93
2022-09-06T12:53:55.593Z,38.96
2022-09-06T12:56:26.731Z,40.15
2022-09-06T12:59:19.384Z,38.85
2022-09-06T13:01:50.556Z,38.93
2022-09-06T13:04:39.827Z,39.37
2022-09-06T13:07:14.407Z,40.52
2022-09-06T13:09:49.520Z,39.25
2022-09-06T13:12:32.835Z,39.77
2022-09-06T13:15:29.351Z,38.85
2022-09-06T13:18:23.836Z,40.83
2022-09-06T13:21:14.203Z,41.84
2022-09-06T13:23:48.397Z,41.02
2022-09-06T13:26:32.589Z,40.56
2022-09-06T13:29:18.687Z,40.02
2022-09-06T13:31:48.447Z,39.80
2022-09-06T13:34:24.398Z,39.80
2022-09-06T13:36:55.964Z,41.57
2022-09-06T13:39:39.200Z,40.37
2022-09-06T13:42:10.886Z,41.04
2022-09-06T13:44:39.871Z,41.02
2022-09-06T13:47:07.417Z,39.97
2022-09-06T13:49:34.798Z,40.58
2022-09-06T13:52:04.630Z,40.91
2022-09-06T13:54:33.637Z,38.95
2022-09-06T13:57:04.600Z,40.74
2022-09-06T13:59:32.072Z,41.06
2022-09-06T14:02:10.138Z,39.84
2022-09-06T14:04:38.779Z,39.31
2022-09-06T14:07:06.311Z,39.69
2022-09-06T14:09:34.066Z,39.86
2022-09-06T14:12:02.251Z,39.97
2022-09-06T14:14:29.809Z,40.08
2022-09-06T14:16:57.220Z,41.92
2022-09-06T14:19:24.689Z,43.06
2022-09-06T14:21:52.618Z,42.10
2022-09-06T14:24:20.182Z,41.12
2022-09-06T14:26:47.766Z,40.98
2022-09-06T14:29:15.122Z,40.02
2022-09-06T14:31:42.381Z,40.24
2022-09-06T14:34:09.683Z,41.38
2022-09-06T14:36:36.917Z,40.52
2022-09-06T14:39:04.313Z,40.28
2022-09-06T14:41:32.359Z,40.75
2022-09-06T14:44:00.148Z,39.22
2022-09-06T14:46:29.696Z,40.80
2022-09-06T14:49:06.130Z,39.38
2022-09-06T14:51:35.835Z,39.45
2022-09-06T14:54:10.809Z,39.39
2022-09-06T14:56:41.977Z,39.34
2022-09-06T14:59:10.565Z,39.04
2022-09-06T15:01:39.596Z,39.67
2022-09-06T15:04:10.774Z,40.02
2022-09-06T15:06:41.095Z,40.51
2022-09-06T15:09:11.357Z,40.34
2022-09-06T15:11:50.575Z,39.77
2022-09-06T15:14:29.269Z,41.21
2022-09-06T15:17:00.001Z,40.84
2022-09-06T15:19:29.734Z,41.23
2022-09-06T15:21:57.727Z,41.21
2022-09-06T15:24:26.011Z,42.81
2022-09-06T15:26:53.659Z,45.29
2022-09-06T15:29:21.242Z,44.57
2022-09-06T15:31:52.897Z,45.50
2022-09-06T15:34:23.339Z,45.87
2022-09-06T15:36:52.950Z,45.23
2022-09-06T15:39:20.707Z,46.96
2022-09-06T15:41:51.475Z,46.14
2022-09-06T15:44:21.567Z,46.56
2022-09-06T15:46:56.811Z,46.90
2022-09-06T15:49:33.770Z,47.35
2022-09-06T15:52:05.938Z,47.75
2022-09-06T15:54:52.019Z,47.31
2022-09-06T15:57:19.516Z,46.75
2022-09-06T15:59:47.051Z,47.35
2022-09-06T16:02:14.943Z,46.92
2022-09-06T16:04:42.633Z,47.31
2022-09-06T16:07:10.123Z,47.43
2022-09-06T16:09:37.870Z,47.36
2022-09-06T16:12:06.393Z,48.06
2022-09-06T16:14:34.842Z,47.84
2022-09-06T16:17:02.392Z,48.31
2022-09-06T16:19:29.999Z,48.79
2022-09-06T16:21:58.966Z,49.17
2022-09-06T16:24:26.969Z,49.65
2022-09-06T16:26:54.563Z,50.05
2022-09-06T16:29:22.165Z,50.36
2022-09-06T16:31:50.590Z,50.84
2022-09-06T16:34:18.161Z,51.10
2022-09-06T16:36:45.822Z,51.60
2022-09-06T16:39:13.182Z,51.78
2022-09-06T16:41:44.267Z,52.32
2022-09-06T16:44:18.089Z,52.24
2022-09-06T16:46:48.801Z,52.77
2022-09-06T16:49:19.079Z,53.10
2022-09-06T16:51:49.516Z,52.92
2022-09-06T16:54:18.180Z,53.01
2022-09-06T16:56:45.897Z,53.58
2022-09-06T16:59:15.283Z,54.18
2022-09-06T17:01:44.241Z,54.55
2022-09-06T17:04:13.013Z,54.23
2022-09-06T17:06:44.666Z,54.51
2022-09-06T17:09:19.406Z,54.77
2022-09-06T17:11:49.939Z,54.62
2022-09-06T17:14:18.225Z,54.81
2022-09-06T17:17:04.533Z,55.09
2022-09-06T17:19:41.711Z,55.35
2022-09-06T17:22:12.601Z,55.56
2022-09-06T17:24:41.593Z,55.86
2022-09-06T17:27:10.081Z,56.27
2022-09-06T17:29:39.930Z,56.33
2022-09-06T17:32:10.319Z,56.84
2022-09-06T17:34:40.343Z,56.99
2022-09-06T17:37:08.759Z,57.68
2022-09-06T17:39:37.277Z,58.43
2022-09-06T17:42:05.458Z,59.36
2022-09-06T17:44:33.225Z,60.19
2022-09-06T17:47:12.590Z,61.14
2022-09-06T17:49:41.409Z,61.60
2022-09-06T17:52:09.750Z,61.71
2022-09-06T17:54:37.767Z,62.37
2022-09-06T17:57:05.549Z,62.65
2022-09-06T17:59:35.825Z,63.77
2022-09-06T18:02:05.192Z,64.30
2022-09-06T18:04:33.240Z,63.92
2022-09-06T18:07:00.919Z,64.63
2022-09-06T18:09:28.549Z,65.12
2022-09-06T18:11:56.978Z,65.17
2022-09-06T18:14:24.723Z,65.99
2022-09-06T18:16:52.525Z,66.89
2022-09-06T18:19:21.021Z,67.31
2022-09-06T18:21:48.994Z,67.75
2022-09-06T18:24:17.348Z,67.93
2022-09-06T18:26:45.046Z,67.83
2022-09-06T18:29:15.203Z,67.41
2022-09-06T18:31:43.739Z,67.39
2022-09-06T18:34:12.671Z,67.70
2022-09-06T18:36:40.935Z,68.16
2022-09-06T18:39:08.799Z,68.28
2022-09-06T18:41:54.915Z,68.10
2022-09-06T18:44:23.172Z,68.62
2022-09-06T18:46:55.906Z,69.00
2022-09-06T18:49:24.456Z,68.78
2022-09-06T18:51:52.287Z,68.84
2022-09-06T18:54:20.890Z,68.96
2022-09-06T18:56:50.210Z,68.89
2022-09-06T18:59:18.908Z,68.68
2022-09-06T19:01:46.870Z,68.87
2022-09-06T19:04:15.083Z,68.95
2022-09-06T19:06:44.886Z,69.02
2022-09-06T19:09:16.664Z,69.12
2022-09-06T19:11:47.213Z,69.39
2022-09-06T19:14:15.356Z,69.65
2022-09-06T19:16:45.448Z,69.81
2022-09-06T19:19:13.651Z,70.14
2022-09-06T19:21:42.538Z,70.57
2022-09-06T19:24:12.305Z,70.81
2022-09-06T19:26:44.300Z,71.16
2022-09-06T19:29:16.143Z,71.28
2022-09-06T19:31:45.553Z,71.12
2022-09-06T19:34:15.674Z,71.24
2022-09-06T19:36:44.947Z,71.46
2022-09-06T19:39:16.751Z,71.40
2022-09-06T19:41:46.940Z,71.50
2022-09-06T19:44:16.835Z,71.47
2022-09-06T19:46:46.825Z,71.61
2022-09-06T19:49:17.208Z,71.54
2022-09-06T19:51:46.722Z,71.56
2022-09-06T19:54:16.168Z,71.60
2022-09-06T19:56:44.757Z,71.71
2022-09-06T19:59:14.444Z,71.78
2022-09-06T20:01:44.377Z,71.74
2022-09-06T20:04:13.875Z,71.63
2022-09-06T20:06:41.445Z,71.79
2022-09-06T20:09:10.867Z,71.76
2022-09-06T20:11:40.815Z,71.81
2022-09-06T20:14:10.451Z,71.82
2022-09-06T20:16:41.760Z,72.10
2022-09-06T20:19:14.142Z,72.00
2022-09-06T20:21:43.433Z,72.11
2022-09-06T20:24:11.100Z,72.11
2022-09-06T20:26:38.804Z,72.47
2022-09-06T20:29:07.290Z,72.62
2022-09-06T20:31:37.120Z,72.40
2022-09-06T20:34:06.691Z,72.67
2022-09-06T20:36:34.504Z,72.78
2022-09-06T20:39:02.666Z,73.03
2022-09-06T20:41:30.990Z,73.11
2022-09-06T20:44:00.034Z,73.01
2022-09-06T20:46:32.206Z,73.02
2022-09-06T20:49:03.842Z,73.43
2022-09-06T20:51:34.180Z,73.54
2022-09-06T20:54:04.693Z,73.45
2022-09-06T20:56:39.281Z,73.46
2022-09-06T20:59:12.951Z,73.64
2022-09-06T21:01:44.984Z,74.11
2022-09-06T21:04:16.010Z,74.27
2022-09-06T21:06:45.852Z,75.11
2022-09-06T21:09:15.029Z,75.11
2022-09-06T21:11:43.374Z,76.07
2022-09-06T21:14:11.522Z,76.17
2022-09-06T21:16:40.582Z,76.88
2022-09-06T21:19:10.427Z,77.11
2022-09-06T21:21:39.814Z,77.24
2022-09-06T21:24:09.779Z,77.12
2022-09-06T21:26:38.071Z,76.65
2022-09-06T21:29:05.644Z,77.61
2022-09-06T21:31:36.288Z,77.82
2022-09-06T21:34:15.740Z,78.45
2022-09-06T21:36:44.857Z,78.40
2022-09-06T21:39:12.987Z,78.90
2022-09-06T21:41:42.280Z,79.29
2022-09-06T21:44:10.731Z,78.82
2022-09-06T21:46:40.361Z,79.40
2022-09-06T21:49:13.128Z,79.64
2022-09-06T21:51:41.827Z,80.15
2022-09-06T21:54:09.947Z,80.64
2022-09-06T21:56:38.618Z,81.17
2022-09-06T21:59:07.163Z,81.32
2022-09-06T22:01:38.302Z,81.59
2022-09-06T22:04:06.877Z,81.69
2022-09-06T22:06:36.282Z,81.70
2022-09-06T22:09:10.897Z,81.48
2022-09-06T22:11:41.474Z,81.29
2022-09-06T22:14:12.705Z,81.02
2022-09-06T22:16:40.974Z,81.06
2022-09-06T22:19:10.664Z,80.99
2022-09-06T22:21:39.322Z,80.72
2022-09-06T22:24:10.109Z,80.59
2022-09-06T22:26:40.925Z,80.46
2022-09-06T22:29:11.530Z,80.28
2022-09-06T22:31:40.249Z,80.25
2022-09-06T22:34:08.446Z,80.19
2022-09-06T22:36:35.953Z,80.15
2022-09-06T22:39:03.589Z,80.13
2022-09-06T22:41:33.931Z,80.86
2022-09-06T22:44:02.548Z,81.12
2022-09-06T22:46:30.972Z,81.22
2022-09-06T22:48:59.582Z,81.99
2022-09-06T22:51:27.302Z,81.73
2022-09-06T22:53:54.859Z,81.24
2022-09-06T22:56:22.350Z,81.23
2022-09-06T22:58:50.181Z,81.10
2022-09-06T23:01:18.033Z,81.47
2022-09-06T23:03:48.004Z,81.74
2022-09-06T23:06:15.694Z,81.77
2022-09-06T23:08:43.581Z,82.00
2022-09-06T23:11:14.869Z,81.75
2022-09-06T23:13:43.987Z,82.24
2022-09-06T23:16:18.846Z,82.80
2022-09-06T23:18:47.745Z,83.10
2022-09-06T23:21:22.239Z,83.15
2022-09-06T23:23:52.689Z,83.25
2022-09-06T23:26:24.614Z,83.19
2022-09-06T23:28:56.804Z,83.31
2022-09-06T23:31:28.269Z,83.40
2022-09-06T23:33:58.287Z,83.76
2022-09-06T23:36:26.597Z,84.36
2022-09-06T23:38:54.152Z,83.88
2022-09-06T23:41:21.876Z,84.06
2022-09-06T23:43:49.557Z,84.11
2022-09-06T23:46:17.667Z,84.07
2022-09-06T23:48:45.336Z,84.15
2022-09-06T23:51:13.514Z,84.69
2022-09-06T23:53:41.218Z,84.92
2022-09-06T23:56:09.128Z,85.02
2022-09-06T23:58:37.805Z,84.65
